Time;durP1;ratioP1;P1;durP2;ratioP2;P2;SDS_P1;SDS_P2;PMS_P1;PMS_P2;Temp;Humidity;BMP_temperature;BMP_pressure;BME280_temperature;BME280_humidity;BME280_pressure;Samples;Min_cycle;Max_cycle;Signal;HPM_P1;HPM_P2
2023/12/26 06:01:15;;;;;;;6.20;2.03;;;;;;;;;;5755978;23;20529;-74
2023/12/26 06:03:41;;;;;;;6.40;2.20;;;;;;;;;;5003059;28;20419;-75
2023/12/26 06:06:13;;;;;;;7.90;2.00;;;;;;;;;;5008301;28;20808;-73
2023/12/26 06:08:41;;;;;;;11.63;1.93;;;;;;;;;;5010669;28;20419;-74
2023/12/26 06:11:08;;;;;;;6.40;2.60;;;;;;;;;;4998991;28;20462;-73
2023/12/26 06:13:37;;;;;;;7.50;2.10;;;;;;;;;;4996892;28;20972;-74
2023/12/26 06:16:04;;;;;;;11.90;1.70;;;;;;;;;;4996069;28;20949;-72
2023/12/26 06:18:30;;;;;;;9.43;2.37;;;;;;;;;;4997407;28;20419;-74
2023/12/26 06:20:56;;;;;;;5.90;1.93;;;;;;;;;;5006341;28;20461;-74
2023/12/26 06:23:22;;;;;;;6.33;3.00;;;;;;;;;;4996792;28;20457;-72
2023/12/26 06:25:48;;;;;;;7.63;2.40;;;;;;;;;;4997033;28;20419;-74
2023/12/26 06:28:13;;;;;;;7.10;2.73;;;;;;;;;;4996430;28;20977;-72
2023/12/26 06:30:40;;;;;;;2.73;1.90;;;;;;;;;;5004864;28;20445;-72
2023/12/26 06:33:05;;;;;;;6.00;2.23;;;;;;;;;;4997377;28;20439;-74
2023/12/26 06:35:32;;;;;;;5.73;2.83;;;;;;;;;;4996716;28;20818;-73
2023/12/26 06:37:58;;;;;;;6.57;2.63;;;;;;;;;;4995402;28;20786;-72
2023/12/26 06:40:24;;;;;;;3.83;1.77;;;;;;;;;;4996129;28;20411;-72
2023/12/26 06:42:50;;;;;;;9.87;2.20;;;;;;;;;;4995912;28;20469;-72
2023/12/26 06:45:16;;;;;;;12.73;2.50;;;;;;;;;;4996073;28;20418;-74
2023/12/26 06:47:42;;;;;;;5.10;2.10;;;;;;;;;;4994618;28;20474;-72
2023/12/26 06:50:08;;;;;;;7.70;2.50;;;;;;;;;;4995677;28;20411;-72
2023/12/26 06:52:35;;;;;;;5.37;2.20;;;;;;;;;;4994584;28;20922;-73
2023/12/26 06:55:01;;;;;;;11.50;2.50;;;;;;;;;;4995987;28;20419;-74
2023/12/26 06:57:26;;;;;;;4.90;2.80;;;;;;;;;;5000704;28;20502;-74
2023/12/26 06:59:53;;;;;;;4.10;2.13;;;;;;;;;;5002107;28;20415;-73
2023/12/26 07:02:19;;;;;;;6.90;2.13;;;;;;;;;;5002747;28;20514;-73
2023/12/26 07:04:45;;;;;;;9.73;1.97;;;;;;;;;;5011285;28;20423;-74
2023/12/26 07:07:11;;;;;;;8.70;2.43;;;;;;;;;;5009198;28;20514;-72
2023/12/26 07:09:38;;;;;;;4.37;2.60;;;;;;;;;;5010435;28;20476;-72
2023/12/26 07:12:04;;;;;;;7.47;3.27;;;;;;;;;;4995502;28;20435;-72
2023/12/26 07:14:30;;;;;;;4.10;1.93;;;;;;;;;;4995418;28;20407;-73
2023/12/26 07:16:56;;;;;;;4.67;2.60;;;;;;;;;;4994801;28;20421;-72
2023/12/26 07:19:22;;;;;;;4.67;2.30;;;;;;;;;;4995322;28;20422;-73
2023/12/26 07:21:48;;;;;;;6.77;2.40;;;;;;;;;;4994537;28;20446;-73
2023/12/26 07:24:14;;;;;;;7.03;2.50;;;;;;;;;;4995468;28;20411;-72
2023/12/26 07:26:40;;;;;;;5.80;2.27;;;;;;;;;;4994402;28;20989;-71
2023/12/26 07:29:06;;;;;;;8.60;2.57;;;;;;;;;;4995511;28;20415;-72
2023/12/26 07:31:32;;;;;;;8.47;2.80;;;;;;;;;;4997867;28;20439;-73
2023/12/26 07:34:00;;;;;;;4.63;2.30;;;;;;;;;;4995612;28;20446;-72
2023/12/26 07:36:26;;;;;;;11.83;2.57;;;;;;;;;;4995045;28;20446;-71
2023/12/26 07:38:52;;;;;;;5.23;2.20;;;;;;;;;;4995024;28;20443;-73
2023/12/26 07:41:18;;;;;;;3.20;2.13;;;;;;;;;;4995698;28;20425;-72
2023/12/26 07:43:44;;;;;;;3.93;2.30;;;;;;;;;;4993812;28;20473;-72
2023/12/26 07:46:10;;;;;;;10.93;2.10;;;;;;;;;;4993747;28;20918;-72
2023/12/26 07:48:36;;;;;;;6.13;2.90;;;;;;;;;;4993387;28;20900;-72
2023/12/26 07:51:02;;;;;;;6.50;2.60;;;;;;;;;;4994975;28;20481;-72
2023/12/26 07:53:28;;;;;;;5.70;2.33;;;;;;;;;;4994593;28;20498;-74
2023/12/26 07:55:54;;;;;;;6.73;2.60;;;;;;;;;;4995143;28;20502;-73
2023/12/26 07:58:20;;;;;;;4.13;3.00;;;;;;;;;;5001323;28;20493;-72
2023/12/26 08:00:46;;;;;;;11.37;2.50;;;;;;;;;;5004902;28;20449;-72
2023/12/26 08:03:15;;;;;;;4.70;2.27;;;;;;;;;;5005030;28;20485;-72
2023/12/26 08:05:42;;;;;;;6.93;2.30;;;;;;;;;;5006295;28;20427;-75
2023/12/26 08:08:10;;;;;;;8.93;2.80;;;;;;;;;;5008271;28;20493;-71
2023/12/26 08:10:35;;;;;;;7.50;3.00;;;;;;;;;;4998039;28;20462;-71
2023/12/26 08:13:01;;;;;;;7.13;2.80;;;;;;;;;;4996174;28;20906;-72
2023/12/26 08:15:27;;;;;;;6.10;2.57;;;;;;;;;;4996065;28;20833;-74
2023/12/26 08:17:53;;;;;;;7.63;2.83;;;;;;;;;;4995049;28;20921;-72
2023/12/26 08:20:19;;;;;;;6.30;2.47;;;;;;;;;;4994248;28;20415;-74
2023/12/26 08:22:45;;;;;;;4.53;2.30;;;;;;;;;;4994084;28;20422;-74
2023/12/26 08:25:11;;;;;;;8.73;2.93;;;;;;;;;;4992823;28;20423;-73
2023/12/26 08:27:37;;;;;;;2.43;1.60;;;;;;;;;;4993897;28;20466;-73
2023/12/26 08:30:04;;;;;;;4.53;2.20;;;;;;;;;;4993265;28;20438;-72
2023/12/26 08:32:30;;;;;;;4.60;2.30;;;;;;;;;;4993525;28;20437;-73
2023/12/26 08:34:56;;;;;;;4.93;2.43;;;;;;;;;;4994298;28;20502;-74
2023/12/26 08:37:22;;;;;;;5.33;2.80;;;;;;;;;;4994301;28;20418;-73
2023/12/26 08:39:48;;;;;;;6.10;2.10;;;;;;;;;;4997308;28;20419;-74
2023/12/26 08:42:14;;;;;;;4.80;2.10;;;;;;;;;;4994836;28;20431;-72
2023/12/26 08:44:40;;;;;;;9.00;3.73;;;;;;;;;;4993919;28;20890;-72
2023/12/26 08:47:06;;;;;;;5.80;2.47;;;;;;;;;;4993535;28;20546;-72
2023/12/26 08:49:32;;;;;;;7.93;2.63;;;;;;;;;;4993608;28;20445;-73
2023/12/26 08:52:00;;;;;;;3.00;2.13;;;;;;;;;;4993357;28;20434;-73
2023/12/26 08:54:26;;;;;;;6.80;2.40;;;;;;;;;;4993516;28;20414;-75
2023/12/26 08:56:52;;;;;;;6.60;2.43;;;;;;;;;;4993823;28;20410;-74
2023/12/26 08:59:20;;;;;;;4.20;2.13;;;;;;;;;;4995019;28;20406;-74
2023/12/26 09:01:45;;;;;;;7.90;2.60;;;;;;;;;;4993795;28;20457;-72
2023/12/26 09:04:12;;;;;;;4.00;2.20;;;;;;;;;;4994201;28;20765;-71
2023/12/26 09:06:38;;;;;;;7.67;3.07;;;;;;;;;;4995514;28;20469;-72
2023/12/26 09:09:04;;;;;;;8.73;2.73;;;;;;;;;;4994860;28;20460;-72
2023/12/26 09:11:30;;;;;;;6.90;2.70;;;;;;;;;;4994094;28;20609;-72
2023/12/26 09:13:56;;;;;;;3.53;2.23;;;;;;;;;;4993580;28;20415;-74
2023/12/26 09:16:22;;;;;;;10.20;3.57;;;;;;;;;;4993620;28;20881;-74
2023/12/26 09:18:48;;;;;;;11.60;3.83;;;;;;;;;;4992705;28;20902;-73
2023/12/26 09:21:14;;;;;;;9.23;2.47;;;;;;;;;;4995770;28;20550;-75
2023/12/26 09:23:40;;;;;;;7.07;2.33;;;;;;;;;;4997341;28;20786;-75
2023/12/26 09:26:07;;;;;;;8.53;2.57;;;;;;;;;;4994597;28;20415;-73
2023/12/26 09:28:33;;;;;;;5.50;3.03;;;;;;;;;;4994345;28;20491;-71
2023/12/26 09:30:59;;;;;;;9.60;3.00;;;;;;;;;;4994634;28;20433;-71
2023/12/26 09:33:26;;;;;;;12.13;2.63;;;;;;;;;;4993433;28;20419;-73
2023/12/26 09:35:52;;;;;;;9.80;2.30;;;;;;;;;;4992519;28;20989;-71
2023/12/26 09:38:18;;;;;;;5.93;2.20;;;;;;;;;;4993585;28;20451;-71
2023/12/26 09:40:43;;;;;;;7.10;2.87;;;;;;;;;;4991675;28;20446;-72
2023/12/26 09:43:09;;;;;;;7.37;3.13;;;;;;;;;;4995855;28;20417;-72
2023/12/26 09:45:35;;;;;;;3.73;2.60;;;;;;;;;;4996791;28;20763;-73
2023/12/26 09:48:01;;;;;;;6.53;2.67;;;;;;;;;;4996953;28;20473;-73
2023/12/26 09:50:27;;;;;;;6.83;2.27;;;;;;;;;;4996514;28;20778;-71
2023/12/26 09:52:57;;;;;;;3.73;2.37;;;;;;;;;;4999357;28;20762;-71
2023/12/26 09:55:23;;;;;;;4.20;2.10;;;;;;;;;;4999241;28;20422;-72
2023/12/26 09:57:49;;;;;;;7.70;2.73;;;;;;;;;;4997434;28;20809;-73
2023/12/26 10:00:15;;;;;;;3.40;1.83;;;;;;;;;;4995187;28;20437;-72
2023/12/26 10:02:42;;;;;;;6.20;2.30;;;;;;;;;;4996623;28;20434;-71
2023/12/26 10:05:08;;;;;;;7.33;2.20;;;;;;;;;;4996358;28;20470;-71
2023/12/26 10:07:34;;;;;;;2.60;1.87;;;;;;;;;;4996252;28;20996;-72
2023/12/26 10:10:01;;;;;;;3.73;1.90;;;;;;;;;;4995383;28;20415;-72
2023/12/26 10:12:30;;;;;;;6.53;2.10;;;;;;;;;;4996371;28;20426;-72
2023/12/26 10:14:59;;;;;;;3.73;1.77;;;;;;;;;;4995457;28;20455;-72
2023/12/26 10:17:26;;;;;;;4.20;2.03;;;;;;;;;;4999712;28;20426;-73
2023/12/26 10:19:56;;;;;;;7.20;2.40;;;;;;;;;;5000143;28;20418;-72
2023/12/26 10:22:23;;;;;;;4.77;1.70;;;;;;;;;;4996258;28;20438;-72
2023/12/26 10:24:49;;;;;;;6.07;1.90;;;;;;;;;;4996395;28;20415;-71
2023/12/26 10:27:15;;;;;;;2.90;1.93;;;;;;;;;;4996115;28;20458;-72
2023/12/26 10:29:41;;;;;;;6.23;2.27;;;;;;;;;;4996015;28;20494;-71
2023/12/26 10:32:07;;;;;;;3.93;1.80;;;;;;;;;;4996107;28;20437;-73
2023/12/26 10:34:33;;;;;;;2.53;2.10;;;;;;;;;;4996204;28;20407;-72
2023/12/26 10:37:00;;;;;;;2.50;1.80;;;;;;;;;;4995911;28;20505;-71
2023/12/26 10:39:26;;;;;;;4.70;1.77;;;;;;;;;;4995849;28;20423;-72
2023/12/26 10:41:53;;;;;;;4.70;1.67;;;;;;;;;;4995740;28;20569;-72
2023/12/26 10:44:19;;;;;;;2.50;1.50;;;;;;;;;;4996658;28;20414;-70
2023/12/26 10:46:47;;;;;;;7.10;1.80;;;;;;;;;;4997012;28;20485;-73
2023/12/26 10:49:15;;;;;;;4.00;1.90;;;;;;;;;;4998103;28;20407;-71
2023/12/26 10:51:43;;;;;;;5.80;1.87;;;;;;;;;;4995914;28;20426;-72
2023/12/26 10:54:09;;;;;;;6.40;1.50;;;;;;;;;;4995498;28;20407;-70
2023/12/26 10:56:35;;;;;;;4.33;1.63;;;;;;;;;;4995716;28;20414;-73
2023/12/26 10:59:02;;;;;;;2.70;2.37;;;;;;;;;;4995249;28;20441;-72
2023/12/26 13:53:11;;;;;;;5.03;2.57;;;;;;;;;;4993334;28;20399;-75
2023/12/26 13:55:37;;;;;;;3.10;1.63;;;;;;;;;;5005962;28;20462;-75
2023/12/26 13:58:03;;;;;;;4.30;1.87;;;;;;;;;;5014695;28;20423;-74
2023/12/26 14:00:29;;;;;;;5.13;2.10;;;;;;;;;;5016647;28;20423;-74
2023/12/26 14:02:56;;;;;;;1.80;1.70;;;;;;;;;;5016003;28;20450;-74
2023/12/26 14:05:21;;;;;;;2.83;2.23;;;;;;;;;;5016858;28;20435;-75
2023/12/26 14:07:49;;;;;;;1.43;1.00;;;;;;;;;;5015730;28;20470;-74
2023/12/26 14:10:14;;;;;;;1.53;1.10;;;;;;;;;;5005786;28;20411;-75
2023/12/26 14:12:40;;;;;;;9.87;1.43;;;;;;;;;;4995897;28;20943;-77
2023/12/26 14:15:06;;;;;;;1.80;1.40;;;;;;;;;;4993949;28;20882;-76
2023/12/26 14:17:32;;;;;;;1.50;1.43;;;;;;;;;;4993866;28;21025;-74
2023/12/26 14:19:58;;;;;;;2.60;1.07;;;;;;;;;;4992696;28;20930;-76
2023/12/26 14:22:24;;;;;;;1.87;1.60;;;;;;;;;;4998317;28;20415;-76
2023/12/26 14:24:50;;;;;;;1.27;1.20;;;;;;;;;;5006584;28;21045;-75
2023/12/26 14:27:16;;;;;;;0.90;0.83;;;;;;;;;;4993519;28;20466;-76
2023/12/26 14:29:42;;;;;;;1.03;1.00;;;;;;;;;;4996588;28;20417;-76
2023/12/26 14:32:09;;;;;;;2.23;0.90;;;;;;;;;;4996664;28;20462;-76
2023/12/26 14:34:35;;;;;;;1.63;1.30;;;;;;;;;;4998355;28;20441;-76
2023/12/26 14:37:01;;;;;;;1.47;1.10;;;;;;;;;;4998321;28;20514;-76
2023/12/26 14:39:27;;;;;;;1.93;1.40;;;;;;;;;;4996801;28;20419;-75
2023/12/26 14:41:53;;;;;;;3.10;1.60;;;;;;;;;;4994537;28;20541;-74
2023/12/26 14:44:19;;;;;;;4.43;1.57;;;;;;;;;;4994884;28;20438;-76
2023/12/26 14:46:45;;;;;;;2.30;1.57;;;;;;;;;;4996944;28;20415;-77
2023/12/26 14:49:11;;;;;;;2.23;1.20;;;;;;;;;;4996649;28;20453;-77
2023/12/26 14:51:37;;;;;;;1.23;1.20;;;;;;;;;;4996419;28;20506;-76
2023/12/26 14:54:03;;;;;;;1.70;1.30;;;;;;;;;;4996781;28;20427;-76
2023/12/26 14:56:29;;;;;;;1.83;1.50;;;;;;;;;;4995405;28;20443;-75
2023/12/26 14:58:55;;;;;;;3.40;1.73;;;;;;;;;;4995605;28;20446;-75
2023/12/26 15:01:21;;;;;;;6.00;2.00;;;;;;;;;;4995599;28;20411;-74
2023/12/26 15:03:48;;;;;;;2.50;1.67;;;;;;;;;;4995366;28;20403;-75
2023/12/26 15:06:18;;;;;;;4.27;1.60;;;;;;;;;;4996430;28;20407;-77
2023/12/26 15:08:44;;;;;;;1.77;1.17;;;;;;;;;;4994402;28;20510;-74
2023/12/26 15:11:14;;;;;;;2.13;1.97;;;;;;;;;;4995251;28;20437;-75
2023/12/26 15:13:40;;;;;;;2.90;1.70;;;;;;;;;;4995301;28;20415;-75
2023/12/26 15:16:13;;;;;;;3.43;1.50;;;;;;;;;;4994290;28;20417;-76
2023/12/26 15:18:39;;;;;;;1.90;1.27;;;;;;;;;;4995185;28;20846;-75
2023/12/26 15:21:05;;;;;;;1.23;1.10;;;;;;;;;;4993856;28;20430;-76
2023/12/26 15:23:31;;;;;;;2.33;1.87;;;;;;;;;;4993778;28;20894;-76
2023/12/26 15:25:57;;;;;;;3.17;1.30;;;;;;;;;;4993638;28;20446;-75
2023/12/26 15:28:23;;;;;;;3.70;1.40;;;;;;;;;;4993603;28;20463;-76
2023/12/26 15:30:49;;;;;;;1.23;1.13;;;;;;;;;;4993282;28;20430;-76
2023/12/26 15:33:16;;;;;;;1.83;1.50;;;;;;;;;;4994754;28;20410;-76
2023/12/26 15:35:45;;;;;;;3.53;1.13;;;;;;;;;;4994757;28;20437;-76
2023/12/26 15:38:11;;;;;;;3.17;1.47;;;;;;;;;;4993368;28;20497;-75
2023/12/26 15:40:37;;;;;;;7.43;1.53;;;;;;;;;;4994519;28;20500;-76
2023/12/26 15:43:03;;;;;;;2.03;1.50;;;;;;;;;;4994120;28;20415;-76
2023/12/26 15:45:29;;;;;;;7.03;1.53;;;;;;;;;;4995047;28;20434;-75
2023/12/26 15:47:55;;;;;;;2.20;1.93;;;;;;;;;;4993153;28;20458;-75
2023/12/26 15:50:22;;;;;;;5.83;2.30;;;;;;;;;;4994640;28;20447;-76
2023/12/26 15:52:48;;;;;;;4.00;2.10;;;;;;;;;;4993440;28;20415;-75
2023/12/26 15:55:14;;;;;;;4.00;3.00;;;;;;;;;;4994370;28;20438;-75
2023/12/26 15:57:40;;;;;;;4.83;2.57;;;;;;;;;;4994198;28;20426;-75
2023/12/26 16:00:07;;;;;;;5.50;2.53;;;;;;;;;;4992730;28;20462;-75
2023/12/26 16:02:33;;;;;;;3.13;1.90;;;;;;;;;;4994060;28;20411;-76
2023/12/26 16:04:59;;;;;;;3.90;2.17;;;;;;;;;;4993343;28;20784;-75
2023/12/26 16:07:25;;;;;;;3.47;2.23;;;;;;;;;;4993404;28;20471;-75
2023/12/26 16:09:51;;;;;;;4.97;2.27;;;;;;;;;;4993156;28;20443;-75
2023/12/26 16:12:20;;;;;;;2.47;1.70;;;;;;;;;;4994160;28;20829;-76
2023/12/26 16:14:46;;;;;;;2.40;1.63;;;;;;;;;;4992680;28;20962;-76
2023/12/26 16:17:12;;;;;;;3.87;1.83;;;;;;;;;;4992852;28;20411;-76
2023/12/26 16:19:41;;;;;;;2.33;1.77;;;;;;;;;;4993275;28;20988;-76
2023/12/26 16:22:07;;;;;;;4.40;1.93;;;;;;;;;;4994208;28;20415;-76
2023/12/26 16:24:33;;;;;;;3.20;2.10;;;;;;;;;;4993948;28;20795;-75
2023/12/26 16:26:59;;;;;;;2.33;1.67;;;;;;;;;;4994368;28;20463;-75
2023/12/26 16:29:25;;;;;;;5.50;1.73;;;;;;;;;;4994138;28;20446;-75
2023/12/26 16:31:51;;;;;;;4.90;1.67;;;;;;;;;;4993676;28;20435;-75
2023/12/26 16:34:17;;;;;;;1.50;1.40;;;;;;;;;;4994369;28;20458;-75
2023/12/26 16:36:47;;;;;;;4.43;1.80;;;;;;;;;;4992962;28;20415;-76
2023/12/26 16:39:13;;;;;;;2.10;1.77;;;;;;;;;;4995190;28;20419;-76
2023/12/26 16:41:39;;;;;;;4.10;2.20;;;;;;;;;;4996686;28;20474;-75
2023/12/26 16:44:09;;;;;;;1.60;1.60;;;;;;;;;;5016221;28;20461;-75
2023/12/26 16:46:35;;;;;;;3.90;1.90;;;;;;;;;;5017102;28;20407;-76
2023/12/26 16:49:01;;;;;;;2.60;1.60;;;;;;;;;;5001122;28;20954;-77
2023/12/26 16:51:27;;;;;;;1.67;1.60;;;;;;;;;;4994797;28;20515;-76
2023/12/26 16:53:53;;;;;;;3.80;1.97;;;;;;;;;;4995757;28;20430;-75
2023/12/26 16:56:19;;;;;;;2.00;1.77;;;;;;;;;;4996053;28;20403;-76
2023/12/26 16:58:45;;;;;;;3.37;2.10;;;;;;;;;;4995778;28;20943;-76
2023/12/26 17:01:12;;;;;;;5.47;1.93;;;;;;;;;;4994719;28;20490;-77
2023/12/26 17:03:38;;;;;;;3.33;2.30;;;;;;;;;;4993160;28;20407;-77
2023/12/26 17:06:04;;;;;;;3.80;1.80;;;;;;;;;;4993046;28;20407;-76
2023/12/26 17:08:30;;;;;;;2.93;1.77;;;;;;;;;;4991782;28;20943;-76
2023/12/26 17:10:56;;;;;;;1.47;1.37;;;;;;;;;;4991031;28;20465;-76
2023/12/26 17:13:22;;;;;;;1.33;1.20;;;;;;;;;;4989995;28;20411;-76
2023/12/26 17:15:48;;;;;;;2.93;1.60;;;;;;;;;;4991698;28;20485;-77
2023/12/26 17:18:15;;;;;;;5.10;1.80;;;;;;;;;;4990293;28;20431;-75
2023/12/26 17:20:42;;;;;;;1.80;1.73;;;;;;;;;;4991901;28;20425;-76
2023/12/26 17:23:08;;;;;;;4.80;2.30;;;;;;;;;;4993249;28;20418;-76
2023/12/26 17:25:44;;;;;;;2.60;1.97;;;;;;;;;;4994110;28;20783;-75
2023/12/26 17:28:10;;;;;;;3.87;2.33;;;;;;;;;;5005640;28;20482;-75
2023/12/26 17:30:36;;;;;;;10.63;4.83;;;;;;;;;;4997352;28;20502;-75
2023/12/26 17:33:02;;;;;;;12.70;5.10;;;;;;;;;;4998989;28;20411;-75
2023/12/26 17:35:28;;;;;;;16.30;6.90;;;;;;;;;;4994825;28;20441;-75
2023/12/26 17:37:54;;;;;;;8.67;5.77;;;;;;;;;;4992489;28;20477;-74
2023/12/26 17:40:20;;;;;;;6.00;3.30;;;;;;;;;;4993967;28;20406;-76
2023/12/26 17:42:46;;;;;;;10.40;4.00;;;;;;;;;;4994293;28;20418;-76
2023/12/26 17:45:12;;;;;;;8.33;3.50;;;;;;;;;;4999827;28;21009;-76
2023/12/26 17:47:39;;;;;;;19.07;4.50;;;;;;;;;;5001848;28;20569;-76
2023/12/26 17:50:05;;;;;;;11.20;4.00;;;;;;;;;;4999857;28;20469;-77
2023/12/26 17:52:31;;;;;;;5.50;2.70;;;;;;;;;;4997580;28;20925;-77
2023/12/26 17:54:57;;;;;;;9.13;3.50;;;;;;;;;;4997083;28;20430;-76
2023/12/26 17:57:23;;;;;;;4.93;2.23;;;;;;;;;;4994908;28;20475;-76
2023/12/26 17:59:49;;;;;;;3.50;2.43;;;;;;;;;;4995370;28;20550;-76
2023/12/26 18:02:15;;;;;;;7.77;2.50;;;;;;;;;;4996280;28;20418;-76
2023/12/26 18:04:41;;;;;;;4.50;2.67;;;;;;;;;;5000148;28;20441;-76
2023/12/26 18:07:07;;;;;;;9.57;2.50;;;;;;;;;;5000091;28;20489;-76
2023/12/26 18:09:33;;;;;;;3.83;2.40;;;;;;;;;;5000199;28;20411;-76
2023/12/26 18:11:59;;;;;;;6.33;2.30;;;;;;;;;;4999810;28;20759;-76
2023/12/26 18:14:25;;;;;;;3.83;2.30;;;;;;;;;;5009571;23;20527;-71
2023/12/26 18:16:51;;;;;;;5.60;2.37;;;;;;;;;;4977874;28;20447;-71
2023/12/26 18:19:17;;;;;;;8.10;3.07;;;;;;;;;;4976000;28;20443;-72
2023/12/26 18:21:44;;;;;;;15.70;3.97;;;;;;;;;;4977470;28;20408;-72
2023/12/26 18:24:11;;;;;;;9.77;6.03;;;;;;;;;;4977491;28;20400;-71
2023/12/26 18:26:37;;;;;;;14.27;6.90;;;;;;;;;;4977018;28;20403;-71
2023/12/26 18:29:03;;;;;;;9.30;5.00;;;;;;;;;;4977216;28;20412;-73
2023/12/26 18:31:29;;;;;;;7.33;4.40;;;;;;;;;;4987946;28;20408;-72
2023/12/26 18:33:55;;;;;;;11.63;5.80;;;;;;;;;;4993542;28;20415;-71
2023/12/26 18:36:21;;;;;;;5.63;4.20;;;;;;;;;;4993463;28;20466;-72
2023/12/26 18:38:47;;;;;;;12.70;4.07;;;;;;;;;;4993961;28;20498;-71
2023/12/26 18:41:15;;;;;;;9.90;3.37;;;;;;;;;;4994165;28;20420;-72
2023/12/26 18:43:41;;;;;;;9.57;3.47;;;;;;;;;;4991702;28;20412;-72
2023/12/26 18:46:11;;;;;;;5.47;2.97;;;;;;;;;;4978219;28;20435;-72
2023/12/26 18:48:37;;;;;;;4.33;2.80;;;;;;;;;;4979751;28;20490;-73
2023/12/26 18:51:03;;;;;;;4.40;3.03;;;;;;;;;;4977095;28;20408;-72
2023/12/26 18:53:29;;;;;;;9.57;3.83;;;;;;;;;;4975180;28;20447;-72
2023/12/26 18:55:55;;;;;;;14.60;5.50;;;;;;;;;;4974953;28;20534;-72
2023/12/26 18:58:21;;;;;;;9.37;4.90;;;;;;;;;;4976822;28;20428;-73
2023/12/26 19:00:48;;;;;;;6.13;3.60;;;;;;;;;;4976297;28;20776;-71
2023/12/26 19:03:14;;;;;;;16.90;6.87;;;;;;;;;;4975895;28;20911;-72
2023/12/26 19:05:40;;;;;;;17.23;6.20;;;;;;;;;;4976948;28;20483;-71
2023/12/26 19:08:06;;;;;;;12.60;5.80;;;;;;;;;;4976725;28;20455;-71
2023/12/26 19:10:32;;;;;;;25.00;5.57;;;;;;;;;;4973906;28;20814;-72
2023/12/26 19:13:00;;;;;;;17.17;6.20;;;;;;;;;;4969046;28;20412;-71
2023/12/26 19:15:27;;;;;;;19.83;6.17;;;;;;;;;;4975980;28;20459;-71
2023/12/26 19:17:53;;;;;;;15.93;6.90;;;;;;;;;;4978024;28;20419;-72
2023/12/26 19:20:19;;;;;;;10.70;5.20;;;;;;;;;;4981182;28;20418;-72
2023/12/26 19:22:45;;;;;;;8.80;5.17;;;;;;;;;;4980681;28;20919;-72
2023/12/26 19:25:11;;;;;;;9.07;4.60;;;;;;;;;;4981639;28;20446;-72
2023/12/26 19:27:37;;;;;;;10.40;5.17;;;;;;;;;;4981700;28;20463;-72
2023/12/26 19:30:03;;;;;;;8.80;4.70;;;;;;;;;;4982226;28;20420;-72
2023/12/26 19:32:29;;;;;;;12.50;6.17;;;;;;;;;;4978037;28;20424;-72
2023/12/26 19:34:55;;;;;;;11.10;5.20;;;;;;;;;;4979021;28;20873;-70
2023/12/26 19:37:21;;;;;;;9.00;5.57;;;;;;;;;;4977485;28;20424;-70
2023/12/26 19:39:47;;;;;;;16.40;7.77;;;;;;;;;;4977739;28;20428;-71
2023/12/26 19:42:13;;;;;;;18.50;7.70;;;;;;;;;;4977357;28;20444;-72
2023/12/26 19:44:39;;;;;;;11.43;6.20;;;;;;;;;;4976272;28;20780;-71
2023/12/26 19:47:05;;;;;;;9.47;4.40;;;;;;;;;;4977721;28;20464;-73
2023/12/26 19:49:31;;;;;;;8.67;5.13;;;;;;;;;;4976628;28;20412;-72
2023/12/26 19:51:57;;;;;;;8.07;3.73;;;;;;;;;;4982401;28;20414;-71
2023/12/26 19:54:23;;;;;;;9.57;3.47;;;;;;;;;;4976130;28;20432;-72
2023/12/26 19:56:49;;;;;;;6.70;3.70;;;;;;;;;;4974940;28;20471;-70
2023/12/26 19:59:16;;;;;;;6.30;3.80;;;;;;;;;;4975545;28;20495;-73
2023/12/26 20:01:43;;;;;;;10.07;3.10;;;;;;;;;;4975646;28;20780;-72
2023/12/26 20:04:09;;;;;;;6.23;3.50;;;;;;;;;;4975488;28;20498;-72
2023/12/26 20:06:40;;;;;;;8.00;3.63;;;;;;;;;;4975335;28;20491;-73
2023/12/26 20:09:08;;;;;;;8.60;3.80;;;;;;;;;;4975477;28;20970;-73
2023/12/26 20:11:40;;;;;;;8.27;3.33;;;;;;;;;;4975492;28;20411;-72
2023/12/26 20:14:06;;;;;;;6.03;3.40;;;;;;;;;;4975210;28;20446;-71
2023/12/26 20:16:32;;;;;;;6.70;4.17;;;;;;;;;;4976621;28;20447;-71
2023/12/26 20:18:58;;;;;;;8.43;4.70;;;;;;;;;;4976053;28;20416;-72
2023/12/26 20:21:24;;;;;;;5.63;3.43;;;;;;;;;;4975329;28;20404;-71
2023/12/26 20:23:50;;;;;;;4.60;3.43;;;;;;;;;;4974601;28;20415;-72
2023/12/26 20:26:17;;;;;;;8.30;4.20;;;;;;;;;;4974635;28;20535;-72
2023/12/26 20:28:43;;;;;;;5.93;3.47;;;;;;;;;;4974650;28;20555;-74
2023/12/26 20:31:12;;;;;;;3.07;2.90;;;;;;;;;;4974534;28;20439;-72
2023/12/26 20:33:37;;;;;;;8.80;3.47;;;;;;;;;;4974422;28;20423;-71
2023/12/26 20:36:04;;;;;;;6.97;2.87;;;;;;;;;;4974871;28;20432;-71
2023/12/26 20:38:30;;;;;;;22.43;4.27;;;;;;;;;;4974939;28;20420;-70
2023/12/26 20:40:58;;;;;;;16.90;5.20;;;;;;;;;;4974564;28;20420;-72
2023/12/26 20:43:24;;;;;;;8.00;4.53;;;;;;;;;;4974781;28;20420;-72
2023/12/26 20:45:50;;;;;;;11.30;3.10;;;;;;;;;;4974496;28;20435;-73
2023/12/26 20:48:17;;;;;;;8.23;2.73;;;;;;;;;;4975303;28;20501;-73
2023/12/26 20:50:43;;;;;;;5.13;3.03;;;;;;;;;;4975746;28;20404;-72
2023/12/26 20:53:09;;;;;;;4.73;3.10;;;;;;;;;;4975122;28;20454;-72
2023/12/26 20:55:35;;;;;;;4.70;2.70;;;;;;;;;;4976068;28;20997;-72
2023/12/26 20:58:01;;;;;;;9.70;2.63;;;;;;;;;;4976638;28;20914;-71
2023/12/26 21:00:28;;;;;;;6.70;2.70;;;;;;;;;;4975875;28;20947;-71
2023/12/26 21:02:55;;;;;;;6.70;2.80;;;;;;;;;;4975543;28;20909;-73
2023/12/26 21:05:21;;;;;;;3.17;2.07;;;;;;;;;;4973693;28;20451;-72
2023/12/26 21:07:47;;;;;;;5.70;2.97;;;;;;;;;;4978659;28;20554;-73
2023/12/26 21:10:12;;;;;;;4.10;2.67;;;;;;;;;;4978359;28;20423;-73
2023/12/26 21:12:38;;;;;;;8.53;3.10;;;;;;;;;;4970658;28;20447;-73
2023/12/26 21:15:05;;;;;;;4.37;2.80;;;;;;;;;;4971717;28;20474;-73
2023/12/26 21:17:30;;;;;;;10.90;3.27;;;;;;;;;;4973198;28;20458;-73
2023/12/26 21:19:56;;;;;;;5.57;3.30;;;;;;;;;;4974049;28;20411;-72
2023/12/26 21:22:22;;;;;;;4.63;2.97;;;;;;;;;;4972421;28;20420;-72
2023/12/26 21:24:48;;;;;;;4.30;2.80;;;;;;;;;;4973824;28;20486;-72
2023/12/26 21:27:14;;;;;;;3.97;2.93;;;;;;;;;;4972834;28;20610;-73
2023/12/26 21:29:40;;;;;;;5.07;3.03;;;;;;;;;;4976875;28;20519;-72
2023/12/26 21:32:06;;;;;;;7.63;3.50;;;;;;;;;;4981323;28;20759;-72
2023/12/26 21:34:35;;;;;;;7.90;3.80;;;;;;;;;;4974332;28;20428;-71
2023/12/26 21:37:01;;;;;;;3.60;3.00;;;;;;;;;;4974353;28;20412;-72
2023/12/26 21:39:28;;;;;;;13.07;3.30;;;;;;;;;;4978448;28;20403;-73
2023/12/26 21:41:54;;;;;;;7.87;4.47;;;;;;;;;;4978835;28;20404;-73
2023/12/26 21:44:20;;;;;;;10.30;3.60;;;;;;;;;;4978035;28;20927;-72
2023/12/26 21:46:46;;;;;;;11.23;4.03;;;;;;;;;;4978330;28;20420;-72
2023/12/26 21:49:12;;;;;;;9.50;3.60;;;;;;;;;;4978283;28;20477;-72
2023/12/26 21:51:38;;;;;;;13.50;3.80;;;;;;;;;;4978070;28;20419;-72
2023/12/26 21:54:04;;;;;;;10.60;4.60;;;;;;;;;;4977917;28;20474;-74
2023/12/26 21:56:30;;;;;;;5.97;3.43;;;;;;;;;;4977879;28;20416;-73
2023/12/26 21:58:56;;;;;;;9.23;3.83;;;;;;;;;;4969221;28;20436;-73
2023/12/26 22:01:29;;;;;;;4.90;3.17;;;;;;;;;;4973560;28;20426;-71
2023/12/26 22:03:55;;;;;;;29.87;4.60;;;;;;;;;;4974470;28;20435;-72
2023/12/26 22:06:21;;;;;;;7.20;3.10;;;;;;;;;;4974830;28;20413;-74
2023/12/26 22:08:47;;;;;;;9.30;4.37;;;;;;;;;;4977172;28;20832;-71
2023/12/26 22:11:13;;;;;;;16.40;3.80;;;;;;;;;;4986637;28;20419;-72
2023/12/26 22:13:39;;;;;;;8.07;3.37;;;;;;;;;;4986901;28;20428;-73
2023/12/26 22:16:05;;;;;;;5.53;3.37;;;;;;;;;;4987745;28;20451;-73
2023/12/26 22:18:32;;;;;;;19.13;4.30;;;;;;;;;;4986991;28;20412;-72
2023/12/26 22:20:58;;;;;;;6.30;3.60;;;;;;;;;;4978464;28;20412;-72
2023/12/26 22:23:24;;;;;;;13.93;3.37;;;;;;;;;;4977432;28;20423;-71
2023/12/26 22:25:50;;;;;;;6.13;3.30;;;;;;;;;;4977102;28;20514;-71
2023/12/26 22:28:16;;;;;;;15.90;3.50;;;;;;;;;;4977260;28;20565;-71
2023/12/26 22:30:45;;;;;;;10.77;3.40;;;;;;;;;;4976023;28;20412;-73
2023/12/26 22:33:11;;;;;;;11.33;3.53;;;;;;;;;;4976802;28;20467;-72
2023/12/26 22:35:39;;;;;;;9.33;3.33;;;;;;;;;;4976993;28;20439;-72
2023/12/26 22:38:05;;;;;;;7.10;3.23;;;;;;;;;;4976833;28;20470;-71
2023/12/26 22:40:30;;;;;;;7.80;3.47;;;;;;;;;;4976945;28;20495;-72
2023/12/26 22:42:56;;;;;;;8.30;3.00;;;;;;;;;;4977051;28;20408;-71
2023/12/26 22:45:22;;;;;;;6.00;3.40;;;;;;;;;;4977032;28;20432;-73
2023/12/26 22:47:48;;;;;;;10.50;3.53;;;;;;;;;;4976832;28;20478;-72
2023/12/26 22:50:14;;;;;;;7.73;3.63;;;;;;;;;;4975954;28;20868;-71
2023/12/26 22:52:40;;;;;;;6.50;3.57;;;;;;;;;;4976655;28;20463;-72
2023/12/26 22:55:06;;;;;;;6.80;4.30;;;;;;;;;;4977030;28;20427;-72
2023/12/26 22:57:36;;;;;;;8.60;4.07;;;;;;;;;;4976720;28;20419;-71
2023/12/26 23:00:03;;;;;;;5.00;3.47;;;;;;;;;;4976829;28;20439;-74
2023/12/26 23:02:29;;;;;;;4.67;3.20;;;;;;;;;;4976672;28;20419;-73
2023/12/26 23:04:55;;;;;;;8.50;4.03;;;;;;;;;;4976353;28;20442;-71
2023/12/26 23:07:20;;;;;;;6.00;3.60;;;;;;;;;;4976881;28;20464;-71
2023/12/26 23:09:46;;;;;;;12.00;3.57;;;;;;;;;;4982963;28;20430;-73
2023/12/26 23:12:12;;;;;;;3.40;2.73;;;;;;;;;;4979238;28;20416;-71
2023/12/26 23:14:38;;;;;;;10.60;3.93;;;;;;;;;;4977235;28;20463;-72
2023/12/26 23:17:04;;;;;;;9.70;3.57;;;;;;;;;;4976852;28;20503;-72
2023/12/26 23:19:30;;;;;;;6.87;3.00;;;;;;;;;;4975134;28;20923;-73
2023/12/26 23:21:56;;;;;;;7.80;3.70;;;;;;;;;;4977246;28;20981;-71
2023/12/26 23:24:22;;;;;;;6.87;3.10;;;;;;;;;;4977290;28;21006;-72
2023/12/26 23:26:49;;;;;;;4.97;3.77;;;;;;;;;;4976051;28;20958;-74